sensor_id;sensor_type;location;lat;lon;timestamp;P1;durP1;ratioP1;P2;durP2;ratioP2
20002;SDS011;10162;41.600;23.806;2022-08-01T00:00:24;16.03;;;11.80;;
20002;SDS011;10162;41.600;23.806;2022-08-01T00:06:37;12.50;;;10.87;;
20002;SDS011;10162;41.600;23.806;2022-08-01T00:09:03;11.93;;;10.33;;
20002;SDS011;10162;41.600;23.806;2022-08-01T00:11:28;11.80;;;10.60;;
20002;SDS011;10162;41.600;23.806;2022-08-01T00:17:41;14.37;;;10.47;;
20002;SDS011;10162;41.600;23.806;2022-08-01T00:20:08;13.13;;;10.53;;
20002;SDS011;10162;41.600;23.806;2022-08-01T00:22:36;11.17;;;10.03;;
20002;SDS011;10162;41.600;23.806;2022-08-01T00:28:49;11.23;;;9.77;;
20002;SDS011;10162;41.600;23.806;2022-08-01T00:31:15;12.47;;;10.40;;
20002;SDS011;10162;41.600;23.806;2022-08-01T00:37:28;12.87;;;11.20;;
20002;SDS011;10162;41.600;23.806;2022-08-01T00:39:54;12.47;;;10.23;;
20002;SDS011;10162;41.600;23.806;2022-08-01T00:42:20;13.37;;;10.67;;
20002;SDS011;10162;41.600;23.806;2022-08-01T00:48:33;14.20;;;10.63;;
20002;SDS011;10162;41.600;23.806;2022-08-01T00:50:59;12.13;;;10.43;;
20002;SDS011;10162;41.600;23.806;2022-08-01T00:57:12;12.63;;;10.27;;
20002;SDS011;10162;41.600;23.806;2022-08-01T00:59:38;14.50;;;12.03;;
20002;SDS011;10162;41.600;23.806;2022-08-01T01:02:04;14.40;;;10.83;;
20002;SDS011;10162;41.600;23.806;2022-08-01T01:07:19;13.23;;;11.03;;
20002;SDS011;10162;41.600;23.806;2022-08-01T01:10:02;18.40;;;11.97;;
20002;SDS011;10162;41.600;23.806;2022-08-01T01:20:27;13.17;;;11.50;;
20002;SDS011;10162;41.600;23.806;2022-08-01T01:25:40;13.83;;;11.43;;
20002;SDS011;10162;41.600;23.806;2022-08-01T01:31:10;15.23;;;11.10;;
20002;SDS011;10162;41.600;23.806;2022-08-01T01:33:51;12.80;;;10.77;;
20002;SDS011;10162;41.600;23.806;2022-08-01T01:36:19;15.37;;;11.67;;
20002;SDS011;10162;41.600;23.806;2022-08-01T01:38:49;15.17;;;11.10;;
20002;SDS011;10162;41.600;23.806;2022-08-01T01:41:17;13.47;;;10.83;;
20002;SDS011;10162;41.600;23.806;2022-08-01T01:43:45;12.23;;;11.00;;
20002;SDS011;10162;41.600;23.806;2022-08-01T01:46:15;12.30;;;10.70;;
20002;SDS011;10162;41.600;23.806;2022-08-01T01:48:44;14.43;;;11.03;;
20002;SDS011;10162;41.600;23.806;2022-08-01T01:51:12;13.30;;;10.90;;
20002;SDS011;10162;41.600;23.806;2022-08-01T01:53:46;12.47;;;11.03;;
20002;SDS011;10162;41.600;23.806;2022-08-01T01:56:14;15.30;;;11.50;;
20002;SDS011;10162;41.600;23.806;2022-08-01T01:58:42;15.53;;;11.13;;
20002;SDS011;10162;41.600;23.806;2022-08-01T02:01:09;13.40;;;10.80;;
20002;SDS011;10162;41.600;23.806;2022-08-01T02:06:32;14.03;;;11.13;;
20002;SDS011;10162;41.600;23.806;2022-08-01T02:08:58;15.57;;;11.53;;
20002;SDS011;10162;41.600;23.806;2022-08-01T02:11:26;15.93;;;11.40;;
20002;SDS011;10162;41.600;23.806;2022-08-01T02:16:41;14.30;;;11.70;;
20002;SDS011;10162;41.600;23.806;2022-08-01T02:19:10;15.07;;;11.00;;
20002;SDS011;10162;41.600;23.806;2022-08-01T02:21:40;13.53;;;11.80;;
20002;SDS011;10162;41.600;23.806;2022-08-01T02:28:05;13.13;;;11.13;;
20002;SDS011;10162;41.600;23.806;2022-08-01T02:30:34;17.07;;;11.50;;
20002;SDS011;10162;41.600;23.806;2022-08-01T02:36:49;14.63;;;10.97;;
20002;SDS011;10162;41.600;23.806;2022-08-01T02:39:18;13.83;;;12.13;;
20002;SDS011;10162;41.600;23.806;2022-08-01T02:41:48;13.87;;;11.93;;
20002;SDS011;10162;41.600;23.806;2022-08-01T02:48:12;14.27;;;10.80;;
20002;SDS011;10162;41.600;23.806;2022-08-01T02:50:39;14.43;;;12.07;;
20002;SDS011;10162;41.600;23.806;2022-08-01T02:56:55;13.67;;;11.47;;
20002;SDS011;10162;41.600;23.806;2022-08-01T02:59:22;14.13;;;11.80;;
20002;SDS011;10162;41.600;23.806;2022-08-01T03:01:51;14.10;;;11.23;;
20002;SDS011;10162;41.600;23.806;2022-08-01T03:08:09;14.07;;;11.23;;
20002;SDS011;10162;41.600;23.806;2022-08-01T03:10:37;17.33;;;11.87;;
20002;SDS011;10162;41.600;23.806;2022-08-01T03:16:51;13.80;;;11.40;;
20002;SDS011;10162;41.600;23.806;2022-08-01T03:19:18;13.00;;;11.60;;
20002;SDS011;10162;41.600;23.806;2022-08-01T03:21:48;15.70;;;12.23;;
20002;SDS011;10162;41.600;23.806;2022-08-01T03:28:03;15.63;;;11.33;;
20002;SDS011;10162;41.600;23.806;2022-08-01T03:30:31;14.03;;;11.63;;
20002;SDS011;10162;41.600;23.806;2022-08-01T03:37:05;13.70;;;11.77;;
20002;SDS011;10162;41.600;23.806;2022-08-01T03:46:54;12.67;;;11.30;;
20002;SDS011;10162;41.600;23.806;2022-08-01T03:49:30;14.50;;;11.50;;
20002;SDS011;10162;41.600;23.806;2022-08-01T03:51:57;14.27;;;11.50;;
20002;SDS011;10162;41.600;23.806;2022-08-01T03:58:13;16.10;;;12.33;;
20002;SDS011;10162;41.600;23.806;2022-08-01T04:00:39;14.10;;;12.37;;
20002;SDS011;10162;41.600;23.806;2022-08-01T04:06:53;14.23;;;11.50;;
20002;SDS011;10162;41.600;23.806;2022-08-01T04:09:19;15.03;;;12.67;;
20002;SDS011;10162;41.600;23.806;2022-08-01T04:11:46;14.33;;;12.13;;
20002;SDS011;10162;41.600;23.806;2022-08-01T04:18:00;12.97;;;11.67;;
20002;SDS011;10162;41.600;23.806;2022-08-01T04:20:26;14.23;;;12.03;;
20002;SDS011;10162;41.600;23.806;2022-08-01T04:22:52;13.63;;;12.23;;
20002;SDS011;10162;41.600;23.806;2022-08-01T04:25:23;14.07;;;12.23;;
20002;SDS011;10162;41.600;23.806;2022-08-01T04:27:52;13.17;;;11.77;;
20002;SDS011;10162;41.600;23.806;2022-08-01T04:30:20;13.87;;;11.07;;
20002;SDS011;10162;41.600;23.806;2022-08-01T04:36:38;14.17;;;11.60;;
20002;SDS011;10162;41.600;23.806;2022-08-01T04:39:07;14.80;;;11.30;;
20002;SDS011;10162;41.600;23.806;2022-08-01T04:41:34;13.47;;;11.23;;
20002;SDS011;10162;41.600;23.806;2022-08-01T04:47:49;12.27;;;10.63;;
20002;SDS011;10162;41.600;23.806;2022-08-01T04:50:16;12.30;;;10.90;;
20002;SDS011;10162;41.600;23.806;2022-08-01T04:52:42;13.10;;;10.87;;
20002;SDS011;10162;41.600;23.806;2022-08-01T04:55:08;12.87;;;10.97;;
20002;SDS011;10162;41.600;23.806;2022-08-01T04:57:36;12.30;;;10.97;;
20002;SDS011;10162;41.600;23.806;2022-08-01T05:00:06;36.37;;;28.33;;
20002;SDS011;10162;41.600;23.806;2022-08-01T05:02:33;39.50;;;30.37;;
20002;SDS011;10162;41.600;23.806;2022-08-01T05:08:45;16.40;;;12.20;;
20002;SDS011;10162;41.600;23.806;2022-08-01T05:11:11;17.23;;;11.90;;
20002;SDS011;10162;41.600;23.806;2022-08-01T05:17:24;13.03;;;11.67;;
20002;SDS011;10162;41.600;23.806;2022-08-01T05:19:50;15.97;;;12.37;;
20002;SDS011;10162;41.600;23.806;2022-08-01T05:22:15;13.60;;;11.50;;
20002;SDS011;10162;41.600;23.806;2022-08-01T05:28:29;13.70;;;11.70;;
20002;SDS011;10162;41.600;23.806;2022-08-01T05:30:55;14.57;;;12.20;;
20002;SDS011;10162;41.600;23.806;2022-08-01T05:37:08;14.33;;;11.50;;
20002;SDS011;10162;41.600;23.806;2022-08-01T05:39:34;11.67;;;10.60;;
20002;SDS011;10162;41.600;23.806;2022-08-01T05:42:00;11.43;;;10.33;;
20002;SDS011;10162;41.600;23.806;2022-08-01T05:48:13;11.00;;;9.90;;
20002;SDS011;10162;41.600;23.806;2022-08-01T05:50:39;10.10;;;9.10;;
20002;SDS011;10162;41.600;23.806;2022-08-01T05:56:52;9.10;;;8.20;;
20002;SDS011;10162;41.600;23.806;2022-08-01T05:59:18;9.33;;;8.43;;
20002;SDS011;10162;41.600;23.806;2022-08-01T06:01:44;8.77;;;7.93;;
20002;SDS011;10162;41.600;23.806;2022-08-01T06:07:57;8.53;;;7.73;;
20002;SDS011;10162;41.600;23.806;2022-08-01T06:10:23;9.03;;;8.20;;
20002;SDS011;10162;41.600;23.806;2022-08-01T06:16:36;8.50;;;7.63;;
20002;SDS011;10162;41.600;23.806;2022-08-01T06:19:02;7.73;;;7.07;;
20002;SDS011;10162;41.600;23.806;2022-08-01T06:21:27;7.37;;;6.77;;
20002;SDS011;10162;41.600;23.806;2022-08-01T06:30:40;7.85;;;7.15;;
20002;SDS011;10162;41.600;23.806;2022-08-01T06:33:07;7.85;;;5.78;;
20002;SDS011;10162;41.600;23.806;2022-08-01T06:35:33;11.57;;;6.50;;
20002;SDS011;10162;41.600;23.806;2022-08-01T06:37:59;9.88;;;4.60;;
20002;SDS011;10162;41.600;23.806;2022-08-01T06:40:25;4.50;;;4.10;;
20002;SDS011;10162;41.600;23.806;2022-08-01T06:42:51;4.82;;;4.40;;
20002;SDS011;10162;41.600;23.806;2022-08-01T06:45:17;4.57;;;4.18;;
20002;SDS011;10162;41.600;23.806;2022-08-01T06:47:43;4.68;;;4.28;;
20002;SDS011;10162;41.600;23.806;2022-08-01T06:50:10;5.70;;;4.70;;
20002;SDS011;10162;41.600;23.806;2022-08-01T06:52:37;5.47;;;4.55;;
20002;SDS011;10162;41.600;23.806;2022-08-01T06:55:03;5.53;;;4.80;;
20002;SDS011;10162;41.600;23.806;2022-08-01T06:57:29;5.28;;;4.80;;
20002;SDS011;10162;41.600;23.806;2022-08-01T06:59:55;4.95;;;4.50;;
20002;SDS011;10162;41.600;23.806;2022-08-01T07:02:21;4.80;;;4.40;;
20002;SDS011;10162;41.600;23.806;2022-08-01T07:04:47;4.80;;;4.35;;
20002;SDS011;10162;41.600;23.806;2022-08-01T07:07:12;6.28;;;4.60;;
20002;SDS011;10162;41.600;23.806;2022-08-01T07:09:38;5.63;;;5.00;;
20002;SDS011;10162;41.600;23.806;2022-08-01T07:12:06;4.88;;;4.47;;
20002;SDS011;10162;41.600;23.806;2022-08-01T07:14:32;4.78;;;4.38;;
20002;SDS011;10162;41.600;23.806;2022-08-01T07:16:58;4.78;;;4.20;;
20002;SDS011;10162;41.600;23.806;2022-08-01T07:19:25;12.35;;;4.90;;
20002;SDS011;10162;41.600;23.806;2022-08-01T07:21:51;6.25;;;4.75;;
20002;SDS011;10162;41.600;23.806;2022-08-01T07:24:18;6.53;;;4.28;;
20002;SDS011;10162;41.600;23.806;2022-08-01T07:26:45;4.93;;;4.40;;
20002;SDS011;10162;41.600;23.806;2022-08-01T07:29:12;5.10;;;4.50;;
20002;SDS011;10162;41.600;23.806;2022-08-01T07:31:37;6.30;;;4.72;;
20002;SDS011;10162;41.600;23.806;2022-08-01T07:34:03;4.88;;;4.47;;
20002;SDS011;10162;41.600;23.806;2022-08-01T07:36:29;5.30;;;4.80;;
20002;SDS011;10162;41.600;23.806;2022-08-01T07:38:55;4.90;;;4.53;;
20002;SDS011;10162;41.600;23.806;2022-08-01T07:41:20;5.00;;;4.53;;
20002;SDS011;10162;41.600;23.806;2022-08-01T07:43:46;5.20;;;4.75;;
20002;SDS011;10162;41.600;23.806;2022-08-01T07:46:15;4.97;;;4.57;;
20002;SDS011;10162;41.600;23.806;2022-08-01T07:48:42;4.97;;;4.57;;
20002;SDS011;10162;41.600;23.806;2022-08-01T07:51:08;5.07;;;4.57;;
20002;SDS011;10162;41.600;23.806;2022-08-01T07:53:35;5.00;;;4.60;;
20002;SDS011;10162;41.600;23.806;2022-08-01T07:56:02;5.05;;;4.60;;
20002;SDS011;10162;41.600;23.806;2022-08-01T07:58:30;4.90;;;4.50;;
20002;SDS011;10162;41.600;23.806;2022-08-01T08:00:55;5.20;;;4.80;;
20002;SDS011;10162;41.600;23.806;2022-08-01T08:03:21;5.25;;;4.82;;
20002;SDS011;10162;41.600;23.806;2022-08-01T08:05:47;5.40;;;4.90;;
20002;SDS011;10162;41.600;23.806;2022-08-01T08:08:13;5.60;;;4.38;;
20002;SDS011;10162;41.600;23.806;2022-08-01T08:10:40;6.35;;;5.10;;
20002;SDS011;10162;41.600;23.806;2022-08-01T08:13:06;5.10;;;4.65;;
20002;SDS011;10162;41.600;23.806;2022-08-01T08:15:32;4.95;;;4.55;;
20002;SDS011;10162;41.600;23.806;2022-08-01T08:17:58;5.30;;;4.80;;
20002;SDS011;10162;41.600;23.806;2022-08-01T08:20:23;8.63;;;7.72;;
20002;SDS011;10162;41.600;23.806;2022-08-01T08:22:53;8.57;;;6.57;;
20002;SDS011;10162;41.600;23.806;2022-08-01T08:25:19;5.80;;;5.40;;
20002;SDS011;10162;41.600;23.806;2022-08-01T08:27:49;5.82;;;5.32;;
20002;SDS011;10162;41.600;23.806;2022-08-01T08:30:15;5.50;;;5.00;;
20002;SDS011;10162;41.600;23.806;2022-08-01T08:32:41;5.78;;;5.28;;
20002;SDS011;10162;41.600;23.806;2022-08-01T08:35:08;6.60;;;5.78;;
20002;SDS011;10162;41.600;23.806;2022-08-01T08:37:35;7.65;;;7.00;;
20002;SDS011;10162;41.600;23.806;2022-08-01T08:40:02;5.97;;;5.47;;
20002;SDS011;10162;41.600;23.806;2022-08-01T08:42:29;13.35;;;6.53;;
20002;SDS011;10162;41.600;23.806;2022-08-01T08:44:55;5.70;;;5.15;;
20002;SDS011;10162;41.600;23.806;2022-08-01T08:47:21;5.75;;;5.15;;
20002;SDS011;10162;41.600;23.806;2022-08-01T08:49:50;5.18;;;4.78;;
20002;SDS011;10162;41.600;23.806;2022-08-01T08:52:19;5.97;;;5.28;;
20002;SDS011;10162;41.600;23.806;2022-08-01T08:54:46;5.63;;;5.22;;
20002;SDS011;10162;41.600;23.806;2022-08-01T08:57:14;6.03;;;5.53;;
20002;SDS011;10162;41.600;23.806;2022-08-01T08:59:42;5.80;;;5.20;;
20002;SDS011;10162;41.600;23.806;2022-08-01T09:02:09;5.63;;;5.22;;
20002;SDS011;10162;41.600;23.806;2022-08-01T09:04:35;6.65;;;5.18;;
20002;SDS011;10162;41.600;23.806;2022-08-01T09:07:04;13.88;;;5.75;;
20002;SDS011;10162;41.600;23.806;2022-08-01T09:09:30;6.95;;;4.65;;
20002;SDS011;10162;41.600;23.806;2022-08-01T09:11:56;5.43;;;4.93;;
20002;SDS011;10162;41.600;23.806;2022-08-01T09:17:15;4.32;;;3.90;;
20002;SDS011;10162;41.600;23.806;2022-08-01T09:19:42;4.80;;;4.40;;
20002;SDS011;10162;41.600;23.806;2022-08-01T09:22:11;4.75;;;4.35;;
20002;SDS011;10162;41.600;23.806;2022-08-01T09:27:32;4.68;;;4.20;;
20002;SDS011;10162;41.600;23.806;2022-08-01T09:32:43;3.90;;;3.58;;
20002;SDS011;10162;41.600;23.806;2022-08-01T09:35:29;3.10;;;2.80;;
20002;SDS011;10162;41.600;23.806;2022-08-01T09:43:13;3.60;;;3.33;;
20002;SDS011;10162;41.600;23.806;2022-08-01T09:45:39;3.05;;;2.35;;
20002;SDS011;10162;41.600;23.806;2022-08-01T09:48:08;2.97;;;2.72;;
20002;SDS011;10162;41.600;23.806;2022-08-01T09:50:44;3.75;;;2.97;;
20002;SDS011;10162;41.600;23.806;2022-08-01T09:53:39;3.20;;;2.90;;
20002;SDS011;10162;41.600;23.806;2022-08-01T09:56:12;4.78;;;4.38;;
20002;SDS011;10162;41.600;23.806;2022-08-01T09:58:51;4.40;;;4.00;;
20002;SDS011;10162;41.600;23.806;2022-08-01T10:01:20;2.83;;;2.63;;
20002;SDS011;10162;41.600;23.806;2022-08-01T10:03:47;3.78;;;3.25;;
20002;SDS011;10162;41.600;23.806;2022-08-01T10:06:30;4.38;;;3.85;;
20002;SDS011;10162;41.600;23.806;2022-08-01T10:08:56;8.68;;;5.15;;
20002;SDS011;10162;41.600;23.806;2022-08-01T10:11:21;5.90;;;4.70;;
20002;SDS011;10162;41.600;23.806;2022-08-01T10:13:48;5.47;;;4.53;;
20002;SDS011;10162;41.600;23.806;2022-08-01T10:16:14;5.10;;;4.70;;
20002;SDS011;10162;41.600;23.806;2022-08-01T10:18:41;4.88;;;4.47;;
20002;SDS011;10162;41.600;23.806;2022-08-01T10:21:07;5.15;;;4.32;;
20002;SDS011;10162;41.600;23.806;2022-08-01T10:23:43;9.52;;;4.15;;
20002;SDS011;10162;41.600;23.806;2022-08-01T10:26:10;4.30;;;4.00;;
20002;SDS011;10162;41.600;23.806;2022-08-01T10:28:38;4.15;;;3.85;;
20002;SDS011;10162;41.600;23.806;2022-08-01T10:31:05;7.38;;;4.78;;
20002;SDS011;10162;41.600;23.806;2022-08-01T10:33:32;3.97;;;3.55;;
20002;SDS011;10162;41.600;23.806;2022-08-01T10:36:01;4.70;;;3.70;;
20002;SDS011;10162;41.600;23.806;2022-08-01T10:38:27;4.10;;;3.70;;
20002;SDS011;10162;41.600;23.806;2022-08-01T10:40:54;3.83;;;3.53;;
20002;SDS011;10162;41.600;23.806;2022-08-01T10:43:22;5.35;;;4.95;;
20002;SDS011;10162;41.600;23.806;2022-08-01T10:45:48;7.43;;;5.15;;
20002;SDS011;10162;41.600;23.806;2022-08-01T10:50:47;4.43;;;3.30;;
20002;SDS011;10162;41.600;23.806;2022-08-01T10:53:15;4.15;;;3.25;;
20002;SDS011;10162;41.600;23.806;2022-08-01T10:58:25;3.70;;;3.40;;
20002;SDS011;10162;41.600;23.806;2022-08-01T11:09:00;14.68;;;5.40;;
20002;SDS011;10162;41.600;23.806;2022-08-01T11:11:28;5.70;;;3.15;;
20002;SDS011;10162;41.600;23.806;2022-08-01T11:14:03;3.28;;;3.00;;
20002;SDS011;10162;41.600;23.806;2022-08-01T11:16:35;3.55;;;3.25;;
20002;SDS011;10162;41.600;23.806;2022-08-01T11:19:05;3.38;;;2.60;;
20002;SDS011;10162;41.600;23.806;2022-08-01T11:30:10;4.60;;;4.20;;
20002;SDS011;10162;41.600;23.806;2022-08-01T11:32:52;4.50;;;4.18;;
20002;SDS011;10162;41.600;23.806;2022-08-01T11:35:19;3.83;;;3.55;;
20002;SDS011;10162;41.600;23.806;2022-08-01T11:37:46;4.88;;;3.72;;
20002;SDS011;10162;41.600;23.806;2022-08-01T11:40:23;3.80;;;3.47;;
20002;SDS011;10162;41.600;23.806;2022-08-01T11:43:16;4.38;;;4.07;;
20002;SDS011;10162;41.600;23.806;2022-08-01T11:48:18;7.50;;;4.25;;
20002;SDS011;10162;41.600;23.806;2022-08-01T11:50:45;4.97;;;4.57;;
20002;SDS011;10162;41.600;23.806;2022-08-01T11:53:12;5.28;;;4.78;;
20002;SDS011;10162;41.600;23.806;2022-08-01T11:55:44;5.18;;;4.70;;
20002;SDS011;10162;41.600;23.806;2022-08-01T11:58:12;5.93;;;4.78;;
20002;SDS011;10162;41.600;23.806;2022-08-01T12:00:38;5.07;;;4.75;;
20002;SDS011;10162;41.600;23.806;2022-08-01T12:03:06;5.53;;;5.03;;
20002;SDS011;10162;41.600;23.806;2022-08-01T12:05:33;4.82;;;4.35;;
20002;SDS011;10162;41.600;23.806;2022-08-01T12:08:02;5.00;;;4.60;;
20002;SDS011;10162;41.600;23.806;2022-08-01T12:10:33;5.45;;;5.00;;
20002;SDS011;10162;41.600;23.806;2022-08-01T12:13:04;9.65;;;5.63;;
20002;SDS011;10162;41.600;23.806;2022-08-01T12:15:35;5.30;;;4.90;;
20002;SDS011;10162;41.600;23.806;2022-08-01T12:18:03;7.22;;;4.63;;
20002;SDS011;10162;41.600;23.806;2022-08-01T12:20:31;3.90;;;3.60;;
20002;SDS011;10162;41.600;23.806;2022-08-01T12:23:06;3.97;;;3.67;;
20002;SDS011;10162;41.600;23.806;2022-08-01T12:25:34;4.60;;;4.20;;
20002;SDS011;10162;41.600;23.806;2022-08-01T12:28:02;3.97;;;3.65;;
20002;SDS011;10162;41.600;23.806;2022-08-01T12:30:32;4.10;;;3.80;;
20002;SDS011;10162;41.600;23.806;2022-08-01T12:33:00;5.22;;;4.28;;
20002;SDS011;10162;41.600;23.806;2022-08-01T12:35:28;4.40;;;4.00;;
20002;SDS011;10162;41.600;23.806;2022-08-01T12:40:26;4.38;;;3.80;;
20002;SDS011;10162;41.600;23.806;2022-08-01T12:42:57;3.80;;;3.50;;
20002;SDS011;10162;41.600;23.806;2022-08-01T12:45:34;4.75;;;4.32;;
20002;SDS011;10162;41.600;23.806;2022-08-01T12:48:08;5.38;;;3.65;;
20002;SDS011;10162;41.600;23.806;2022-08-01T12:50:41;4.13;;;3.83;;
20002;SDS011;10162;41.600;23.806;2022-08-01T12:53:09;3.83;;;3.53;;
20002;SDS011;10162;41.600;23.806;2022-08-01T12:55:46;3.90;;;3.60;;
20002;SDS011;10162;41.600;23.806;2022-08-01T12:58:14;4.50;;;3.55;;
20002;SDS011;10162;41.600;23.806;2022-08-01T13:00:42;4.32;;;3.85;;
20002;SDS011;10162;41.600;23.806;2022-08-01T13:03:12;5.00;;;3.78;;
20002;SDS011;10162;41.600;23.806;2022-08-01T13:08:22;3.67;;;3.13;;
20002;SDS011;10162;41.600;23.806;2022-08-01T13:11:05;4.90;;;3.35;;
20002;SDS011;10162;41.600;23.806;2022-08-01T13:16:22;3.08;;;2.85;;
20002;SDS011;10162;41.600;23.806;2022-08-01T13:18:50;3.42;;;3.13;;
20002;SDS011;10162;41.600;23.806;2022-08-01T13:21:18;4.30;;;3.67;;
20002;SDS011;10162;41.600;23.806;2022-08-01T13:26:37;4.55;;;3.47;;
20002;SDS011;10162;41.600;23.806;2022-08-01T13:29:11;3.67;;;3.38;;
20002;SDS011;10162;41.600;23.806;2022-08-01T13:31:42;3.97;;;3.05;;
20002;SDS011;10162;41.600;23.806;2022-08-01T13:34:08;3.50;;;3.20;;
20002;SDS011;10162;41.600;23.806;2022-08-01T13:36:35;3.33;;;3.13;;
20002;SDS011;10162;41.600;23.806;2022-08-01T13:39:01;4.07;;;3.20;;
20002;SDS011;10162;41.600;23.806;2022-08-01T13:41:46;3.42;;;3.17;;
20002;SDS011;10162;41.600;23.806;2022-08-01T13:44:12;5.25;;;2.90;;
20002;SDS011;10162;41.600;23.806;2022-08-01T13:46:39;3.55;;;3.25;;
20002;SDS011;10162;41.600;23.806;2022-08-01T13:49:07;10.15;;;3.35;;
20002;SDS011;10162;41.600;23.806;2022-08-01T13:51:34;3.67;;;2.90;;
20002;SDS011;10162;41.600;23.806;2022-08-01T13:54:02;3.45;;;2.97;;
20002;SDS011;10162;41.600;23.806;2022-08-01T13:56:28;3.28;;;2.75;;
20002;SDS011;10162;41.600;23.806;2022-08-01T13:58:54;3.22;;;3.03;;
20002;SDS011;10162;41.600;23.806;2022-08-01T14:01:21;3.42;;;3.20;;
20002;SDS011;10162;41.600;23.806;2022-08-01T14:03:48;3.30;;;3.00;;
20002;SDS011;10162;41.600;23.806;2022-08-01T14:06:14;3.42;;;3.08;;
20002;SDS011;10162;41.600;23.806;2022-08-01T14:08:42;2.70;;;2.50;;
20002;SDS011;10162;41.600;23.806;2022-08-01T14:11:08;3.80;;;3.05;;
20002;SDS011;10162;41.600;23.806;2022-08-01T14:13:50;3.10;;;2.90;;
20002;SDS011;10162;41.600;23.806;2022-08-01T14:16:16;3.38;;;3.10;;
20002;SDS011;10162;41.600;23.806;2022-08-01T14:18:42;3.47;;;3.17;;
20002;SDS011;10162;41.600;23.806;2022-08-01T14:21:08;6.60;;;3.30;;
20002;SDS011;10162;41.600;23.806;2022-08-01T14:27:23;3.17;;;2.90;;
20002;SDS011;10162;41.600;23.806;2022-08-01T14:29:51;3.60;;;3.30;;
20002;SDS011;10162;41.600;23.806;2022-08-01T14:32:16;3.38;;;3.08;;
20002;SDS011;10162;41.600;23.806;2022-08-01T14:34:49;4.32;;;4.03;;
20002;SDS011;10162;41.600;23.806;2022-08-01T14:37:15;3.38;;;3.03;;
20002;SDS011;10162;41.600;23.806;2022-08-01T14:39:41;3.13;;;2.83;;
20002;SDS011;10162;41.600;23.806;2022-08-01T14:42:07;4.10;;;3.80;;
20002;SDS011;10162;41.600;23.806;2022-08-01T14:47:18;4.93;;;3.17;;
20002;SDS011;10162;41.600;23.806;2022-08-01T14:49:44;6.53;;;3.67;;
20002;SDS011;10162;41.600;23.806;2022-08-01T14:52:10;3.80;;;2.88;;
20002;SDS011;10162;41.600;23.806;2022-08-01T14:54:43;3.47;;;3.13;;
20002;SDS011;10162;41.600;23.806;2022-08-01T14:57:09;2.97;;;2.78;;
20002;SDS011;10162;41.600;23.806;2022-08-01T14:59:35;5.85;;;3.22;;
20002;SDS011;10162;41.600;23.806;2022-08-01T15:02:01;3.25;;;2.95;;
20002;SDS011;10162;41.600;23.806;2022-08-01T15:04:37;3.35;;;3.05;;
20002;SDS011;10162;41.600;23.806;2022-08-01T15:07:04;3.28;;;2.97;;
20002;SDS011;10162;41.600;23.806;2022-08-01T15:09:29;3.38;;;3.08;;
20002;SDS011;10162;41.600;23.806;2022-08-01T15:11:55;2.90;;;2.70;;
20002;SDS011;10162;41.600;23.806;2022-08-01T15:17:30;2.80;;;2.60;;
20002;SDS011;10162;41.600;23.806;2022-08-01T15:19:58;2.78;;;2.58;;
20002;SDS011;10162;41.600;23.806;2022-08-01T15:22:25;2.90;;;2.70;;
20002;SDS011;10162;41.600;23.806;2022-08-01T15:27:51;2.85;;;2.60;;
20002;SDS011;10162;41.600;23.806;2022-08-01T15:30:18;3.03;;;2.75;;
20002;SDS011;10162;41.600;23.806;2022-08-01T15:32:44;3.33;;;3.03;;
20002;SDS011;10162;41.600;23.806;2022-08-01T15:35:09;2.85;;;2.63;;
20002;SDS011;10162;41.600;23.806;2022-08-01T15:37:35;2.90;;;2.70;;
20002;SDS011;10162;41.600;23.806;2022-08-01T15:40:01;3.03;;;2.47;;
20002;SDS011;10162;41.600;23.806;2022-08-01T15:42:28;3.72;;;3.13;;
20002;SDS011;10162;41.600;23.806;2022-08-01T15:45:09;3.20;;;2.80;;
20002;SDS011;10162;41.600;23.806;2022-08-01T15:47:37;3.05;;;2.75;;
20002;SDS011;10162;41.600;23.806;2022-08-01T15:50:03;3.13;;;2.92;;
20002;SDS011;10162;41.600;23.806;2022-08-01T15:52:29;5.32;;;3.17;;
20002;SDS011;10162;41.600;23.806;2022-08-01T15:57:25;3.35;;;3.15;;
20002;SDS011;10162;41.600;23.806;2022-08-01T15:59:51;3.50;;;3.13;;
20002;SDS011;10162;41.600;23.806;2022-08-01T16:02:16;3.10;;;2.90;;
20002;SDS011;10162;41.600;23.806;2022-08-01T16:04:44;2.88;;;2.67;;
20002;SDS011;10162;41.600;23.806;2022-08-01T16:07:10;3.00;;;2.80;;
20002;SDS011;10162;41.600;23.806;2022-08-01T16:09:36;3.22;;;2.92;;
20002;SDS011;10162;41.600;23.806;2022-08-01T16:12:02;3.13;;;2.92;;
20002;SDS011;10162;41.600;23.806;2022-08-01T16:14:28;2.97;;;2.75;;
20002;SDS011;10162;41.600;23.806;2022-08-01T16:16:53;3.30;;;3.00;;
20002;SDS011;10162;41.600;23.806;2022-08-01T16:19:19;3.88;;;3.13;;
20002;SDS011;10162;41.600;23.806;2022-08-01T16:21:46;5.82;;;5.32;;
20002;SDS011;10162;41.600;23.806;2022-08-01T16:24:12;6.30;;;5.70;;
20002;SDS011;10162;41.600;23.806;2022-08-01T16:26:38;11.45;;;4.85;;
20002;SDS011;10162;41.600;23.806;2022-08-01T16:29:04;3.63;;;3.42;;
20002;SDS011;10162;41.600;23.806;2022-08-01T16:31:30;4.20;;;3.90;;
20002;SDS011;10162;41.600;23.806;2022-08-01T16:33:56;5.25;;;3.72;;
20002;SDS011;10162;41.600;23.806;2022-08-01T16:36:22;3.63;;;3.33;;
20002;SDS011;10162;41.600;23.806;2022-08-01T16:38:47;3.97;;;3.63;;
20002;SDS011;10162;41.600;23.806;2022-08-01T16:41:13;5.25;;;4.82;;
20002;SDS011;10162;41.600;23.806;2022-08-01T16:43:39;5.30;;;4.13;;
20002;SDS011;10162;41.600;23.806;2022-08-01T16:46:05;5.60;;;4.20;;
20002;SDS011;10162;41.600;23.806;2022-08-01T16:48:31;3.92;;;3.63;;
20002;SDS011;10162;41.600;23.806;2022-08-01T16:50:58;6.20;;;5.70;;
20002;SDS011;10162;41.600;23.806;2022-08-01T16:53:24;5.40;;;4.93;;
20002;SDS011;10162;41.600;23.806;2022-08-01T16:55:50;7.40;;;6.70;;
20002;SDS011;10162;41.600;23.806;2022-08-01T16:58:17;7.85;;;7.25;;
20002;SDS011;10162;41.600;23.806;2022-08-01T17:00:44;6.53;;;5.60;;
20002;SDS011;10162;41.600;23.806;2022-08-01T17:03:11;4.93;;;4.43;;
20002;SDS011;10162;41.600;23.806;2022-08-01T17:05:38;5.10;;;4.70;;
20002;SDS011;10162;41.600;23.806;2022-08-01T17:08:05;23.52;;;11.85;;
20002;SDS011;10162;41.600;23.806;2022-08-01T17:10:33;4.13;;;3.83;;
20002;SDS011;10162;41.600;23.806;2022-08-01T17:12:59;4.13;;;3.72;;
20002;SDS011;10162;41.600;23.806;2022-08-01T17:15:26;3.20;;;3.00;;
20002;SDS011;10162;41.600;23.806;2022-08-01T17:17:53;6.20;;;3.63;;
20002;SDS011;10162;41.600;23.806;2022-08-01T17:20:20;6.03;;;4.03;;
20002;SDS011;10162;41.600;23.806;2022-08-01T17:22:46;3.58;;;3.28;;
20002;SDS011;10162;41.600;23.806;2022-08-01T17:25:12;3.47;;;3.15;;
20002;SDS011;10162;41.600;23.806;2022-08-01T17:27:38;3.75;;;3.40;;
20002;SDS011;10162;41.600;23.806;2022-08-01T17:30:04;3.67;;;3.40;;
20002;SDS011;10162;41.600;23.806;2022-08-01T17:32:31;4.03;;;3.42;;
20002;SDS011;10162;41.600;23.806;2022-08-01T17:34:59;14.20;;;11.85;;
20002;SDS011;10162;41.600;23.806;2022-08-01T17:37:26;3.95;;;3.63;;
20002;SDS011;10162;41.600;23.806;2022-08-01T17:39:52;6.70;;;5.03;;
20002;SDS011;10162;41.600;23.806;2022-08-01T17:42:18;4.13;;;3.72;;
20002;SDS011;10162;41.600;23.806;2022-08-01T17:48:31;3.95;;;3.65;;
20002;SDS011;10162;41.600;23.806;2022-08-01T17:50:56;6.95;;;4.93;;
20002;SDS011;10162;41.600;23.806;2022-08-01T17:57:09;5.10;;;4.68;;
20002;SDS011;10162;41.600;23.806;2022-08-01T17:59:35;5.72;;;5.20;;
20002;SDS011;10162;41.600;23.806;2022-08-01T18:05:48;9.60;;;7.25;;